createdAt,value
2019-02-25T00:00:12.665Z,1.11
2019-02-25T00:02:41.291Z,1.11
2019-02-25T00:05:10.291Z,1.12
2019-02-25T00:10:17.476Z,1.07
2019-02-25T00:12:46.094Z,1.10
2019-02-25T00:15:14.822Z,1.02
2019-02-25T00:17:43.450Z,0.97
2019-02-25T00:20:12.092Z,0.96
2019-02-25T00:22:40.711Z,0.91
2019-02-25T00:25:12.335Z,0.94
2019-02-25T00:27:40.956Z,1.01
2019-02-25T00:30:09.590Z,1.04
2019-02-25T00:32:38.220Z,0.99
2019-02-25T00:35:06.844Z,0.98
2019-02-25T00:37:35.477Z,0.92
2019-02-25T00:40:04.501Z,0.87
2019-02-25T00:42:33.129Z,0.92
2019-02-25T00:45:01.792Z,0.91
2019-02-25T00:47:30.729Z,0.89
2019-02-25T00:49:59.365Z,0.87
2019-02-25T00:52:28.276Z,0.85
2019-02-25T00:54:56.899Z,0.88
2019-02-25T01:02:42.734Z,0.90
2019-02-25T01:05:11.352Z,0.83
2019-02-25T01:07:40.249Z,0.80
2019-02-25T01:10:08.862Z,0.85
2019-02-25T01:15:16.377Z,0.75
2019-02-25T01:17:45.018Z,0.78
2019-02-25T01:20:16.614Z,0.75
2019-02-25T01:25:24.069Z,0.75
2019-02-25T01:27:52.715Z,0.75
2019-02-25T01:30:21.337Z,0.74
2019-02-25T01:32:49.986Z,0.75
2019-02-25T01:37:57.201Z,0.61
2019-02-25T01:40:25.836Z,0.56
2019-02-25T01:42:54.840Z,0.57
2019-02-25T01:45:23.783Z,0.65
2019-02-25T01:47:52.456Z,0.64
2019-02-25T01:50:21.350Z,0.59
2019-02-25T01:52:49.982Z,0.59
2019-02-25T01:55:18.599Z,0.48
2019-02-25T01:57:47.234Z,0.43
2019-02-25T02:00:18.990Z,0.46
2019-02-25T02:02:47.952Z,0.56
2019-02-25T02:05:16.558Z,0.58
2019-02-25T02:07:45.512Z,0.57
2019-02-25T02:10:14.154Z,0.50
2019-02-25T02:12:42.769Z,0.54
2019-02-25T02:17:56.050Z,0.49
2019-02-25T02:20:24.687Z,0.44
2019-02-25T02:22:53.314Z,0.39
2019-02-25T02:25:21.927Z,0.48
2019-02-25T02:27:50.561Z,0.45
2019-02-25T02:30:22.155Z,0.44
2019-02-25T02:32:50.795Z,0.43
2019-02-25T02:35:19.786Z,0.37
2019-02-25T02:37:48.701Z,0.34
2019-02-25T02:40:17.669Z,0.34
2019-02-25T02:45:30.662Z,0.28
2019-02-25T02:47:59.291Z,0.24
2019-02-25T02:50:27.903Z,0.24
2019-02-25T02:52:56.527Z,0.31
2019-02-25T02:55:25.142Z,0.34
2019-02-25T02:57:53.743Z,0.32
2019-02-25T03:00:22.693Z,0.33
2019-02-25T03:02:51.346Z,0.32
2019-02-25T03:05:19.968Z,0.30
2019-02-25T03:07:48.588Z,0.25
2019-02-25T03:10:17.203Z,0.29
2019-02-25T03:12:45.842Z,0.28
2019-02-25T03:15:14.474Z,0.24
2019-02-25T03:17:43.107Z,0.19
2019-02-25T03:20:12.070Z,0.17
2019-02-25T03:22:40.699Z,0.22
2019-02-25T03:25:15.585Z,0.23
2019-02-25T03:27:44.592Z,0.21
2019-02-25T03:32:52.112Z,0.22
2019-02-25T03:35:20.700Z,0.22
2019-02-25T03:37:49.315Z,0.21
2019-02-25T03:40:21.093Z,0.09
2019-02-25T03:42:50.109Z,0.14
2019-02-25T03:45:18.723Z,0.14
2019-02-25T03:47:47.350Z,0.18
2019-02-25T03:50:15.958Z,0.14
2019-02-25T03:52:44.605Z,0.08
2019-02-25T03:55:16.258Z,0.09
2019-02-25T03:57:45.176Z,0.11
2019-02-25T04:00:14.051Z,0.07
2019-02-25T04:02:42.687Z,0.08
2019-02-25T04:05:11.301Z,0.14
2019-02-25T04:07:39.930Z,0.14
2019-02-25T04:10:08.547Z,0.09
2019-02-25T04:12:37.190Z,-0.08
2019-02-25T04:15:05.808Z,-0.07
2019-02-25T04:17:34.527Z,-0.10
2019-02-25T04:20:03.142Z,-0.05
2019-02-25T04:22:32.100Z,-0.03
2019-02-25T04:25:00.985Z,-0.05
2019-02-25T04:27:29.615Z,-0.02
2019-02-25T04:29:58.221Z,0.00
2019-02-25T04:32:26.866Z,0.00
2019-02-25T04:34:55.475Z,-0.07
2019-02-25T04:37:24.109Z,-0.03
2019-02-25T04:42:31.257Z,-0.07
2019-02-25T04:44:59.882Z,-0.07
2019-02-25T04:47:28.873Z,-0.01
2019-02-25T04:49:57.766Z,-0.05
2019-02-25T04:55:05.273Z,-0.04
2019-02-25T04:57:33.909Z,-0.08
2019-02-25T05:00:02.848Z,-0.08
2019-02-25T05:02:31.474Z,-0.13
2019-02-25T05:05:00.332Z,-0.13
2019-02-25T05:07:28.985Z,-0.08
2019-02-25T05:09:57.879Z,-0.16
2019-02-25T05:12:26.506Z,-0.18
2019-02-25T05:14:55.457Z,-0.21
2019-02-25T05:17:24.042Z,-0.19
2019-02-25T05:19:52.660Z,-0.24
2019-02-25T05:22:21.280Z,-0.23
2019-02-25T05:24:49.965Z,-0.15
2019-02-25T05:27:18.874Z,-0.16
2019-02-25T05:29:47.510Z,-0.18
2019-02-25T05:32:16.471Z,-0.16
2019-02-25T05:34:45.081Z,-0.15
2019-02-25T05:39:52.693Z,-0.22
2019-02-25T05:42:21.270Z,-0.23
2019-02-25T05:44:49.905Z,-0.24
2019-02-25T05:47:18.790Z,-0.25
2019-02-25T05:49:47.461Z,-0.27
2019-02-25T05:54:54.563Z,-0.21
2019-02-25T05:57:23.166Z,-0.25
2019-02-25T05:59:51.793Z,-0.20
2019-02-25T06:04:46.935Z,-0.35
2019-02-25T06:07:15.570Z,-0.45
2019-02-25T06:09:44.166Z,-0.40
2019-02-25T06:12:12.778Z,-0.31
2019-02-25T06:14:41.392Z,-0.33
2019-02-25T06:17:09.993Z,-0.30
2019-02-25T06:19:38.622Z,-0.31
2019-02-25T06:22:07.256Z,-0.29
2019-02-25T06:24:35.886Z,-0.28
2019-02-25T06:27:04.509Z,-0.26
2019-02-25T06:29:33.143Z,-0.26
2019-02-25T06:32:01.737Z,-0.24
2019-02-25T06:34:30.369Z,-0.24
2019-02-25T06:36:59.344Z,-0.22
2019-02-25T06:39:28.218Z,-0.18
2019-02-25T06:41:57.211Z,-0.18
2019-02-25T06:44:25.839Z,-0.24
2019-02-25T06:46:54.457Z,-0.20
2019-02-25T06:49:23.086Z,-0.19
2019-02-25T06:51:51.687Z,-0.15
2019-02-25T06:54:20.321Z,-0.15
2019-02-25T06:56:48.948Z,-0.14
2019-02-25T06:59:17.897Z,-0.16
2019-02-25T07:01:46.511Z,-0.09
2019-02-25T07:04:15.140Z,-0.06
2019-02-25T07:06:43.751Z,0.00
2019-02-25T07:09:12.376Z,0.04
2019-02-25T07:11:41.321Z,0.06
2019-02-25T07:14:09.938Z,0.09
2019-02-25T07:16:38.552Z,0.12
2019-02-25T07:19:07.149Z,0.17
2019-02-25T07:21:35.782Z,0.21
2019-02-25T07:24:04.402Z,0.27
2019-02-25T07:26:33.035Z,0.31
2019-02-25T07:29:03.455Z,0.35
2019-02-25T07:31:30.250Z,0.41
2019-02-25T07:33:58.868Z,0.46
2019-02-25T07:36:27.483Z,0.52
2019-02-25T07:38:56.105Z,0.61
2019-02-25T07:41:24.727Z,0.76
2019-02-25T07:43:53.326Z,1.11
2019-02-25T07:46:21.965Z,1.40
2019-02-25T07:48:50.580Z,1.62
2019-02-25T07:51:19.191Z,1.82
2019-02-25T07:53:47.802Z,2.03
2019-02-25T07:56:16.802Z,2.16
2019-02-25T07:58:45.418Z,2.35
2019-02-25T08:01:14.374Z,2.45
2019-02-25T08:03:42.988Z,2.42
2019-02-25T08:06:12.075Z,2.41
2019-02-25T08:08:40.256Z,2.50
2019-02-25T08:11:08.887Z,2.64
2019-02-25T08:13:37.798Z,2.77
2019-02-25T08:16:06.441Z,2.93
2019-02-25T08:18:35.049Z,3.09
2019-02-25T08:21:03.952Z,3.27
2019-02-25T08:23:32.932Z,3.46
2019-02-25T08:26:01.592Z,3.67
2019-02-25T08:28:32.551Z,3.88
2019-02-25T08:30:59.153Z,3.99
2019-02-25T08:33:27.754Z,4.18
2019-02-25T08:35:56.398Z,4.44
2019-02-25T08:38:25.344Z,4.73
2019-02-25T08:40:53.988Z,4.82
2019-02-25T08:43:22.595Z,5.06
2019-02-25T08:45:51.225Z,5.23
2019-02-25T08:48:19.842Z,5.27
2019-02-25T08:50:48.466Z,5.61
2019-02-25T08:53:17.082Z,5.80
2019-02-25T08:55:45.718Z,6.07
2019-02-25T08:58:14.327Z,6.23
2019-02-25T09:00:42.947Z,6.53
2019-02-25T09:03:11.565Z,6.71
2019-02-25T09:05:40.206Z,6.94
2019-02-25T09:08:08.839Z,7.15
2019-02-25T09:10:37.456Z,7.25
2019-02-25T09:13:06.087Z,7.45
2019-02-25T09:15:34.996Z,7.59
2019-02-25T09:18:03.511Z,7.70
2019-02-25T09:20:32.144Z,7.83
2019-02-25T09:23:00.760Z,7.96
2019-02-25T09:25:29.403Z,7.94
2019-02-25T09:27:57.994Z,8.08
2019-02-25T09:30:26.650Z,8.31
2019-02-25T09:32:55.568Z,8.40
2019-02-25T09:35:24.181Z,8.40
2019-02-25T09:37:52.824Z,8.57
2019-02-25T09:40:21.523Z,8.84
2019-02-25T09:42:50.182Z,8.84
2019-02-25T09:45:19.099Z,8.98
2019-02-25T09:47:47.761Z,9.07
2019-02-25T09:52:55.597Z,9.23
2019-02-25T09:55:24.226Z,9.30
2019-02-25T09:57:53.159Z,9.43
2019-02-25T10:00:21.794Z,9.58
2019-02-25T10:02:50.445Z,9.68
2019-02-25T10:05:19.078Z,9.64
2019-02-25T10:07:48.106Z,9.77
2019-02-25T10:10:17.091Z,9.84
2019-02-25T10:12:45.742Z,9.78
2019-02-25T10:15:20.426Z,9.99
2019-02-25T10:17:49.072Z,10.05
2019-02-25T10:20:17.730Z,10.16
2019-02-25T10:22:46.366Z,10.36
2019-02-25T10:25:15.282Z,10.37
2019-02-25T10:27:43.929Z,10.47
2019-02-25T10:32:56.853Z,10.78
2019-02-25T10:35:27.066Z,10.91
2019-02-25T10:37:54.110Z,11.08
2019-02-25T10:40:26.383Z,11.14
2019-02-25T10:42:51.658Z,11.19
2019-02-25T10:45:23.344Z,11.23
2019-02-25T10:47:57.654Z,11.40
2019-02-25T10:50:20.597Z,11.50
2019-02-25T10:52:49.580Z,11.67
2019-02-25T10:58:21.004Z,11.83
2019-02-25T11:00:49.622Z,11.80
2019-02-25T11:03:20.015Z,11.91
2019-02-25T11:05:46.853Z,11.93
2019-02-25T11:08:15.483Z,11.98
2019-02-25T11:10:46.172Z,12.00
2019-02-25T11:13:13.378Z,12.05
2019-02-25T11:15:44.006Z,12.12
2019-02-25T11:18:11.005Z,12.16
2019-02-25T11:20:39.619Z,12.16
2019-02-25T11:23:09.980Z,12.26
2019-02-25T11:25:36.891Z,12.29
2019-02-25T11:28:07.598Z,12.34
2019-02-25T11:30:34.530Z,12.28
2019-02-25T11:33:03.482Z,12.24
2019-02-25T11:35:34.123Z,12.19
2019-02-25T11:38:01.771Z,12.21
2019-02-25T11:40:31.262Z,12.27
2019-02-25T11:42:58.680Z,12.27
2019-02-25T11:45:27.314Z,12.34
2019-02-25T11:47:55.949Z,12.39
2019-02-25T11:50:24.573Z,12.41
2019-02-25T11:52:53.199Z,12.56
2019-02-25T11:55:22.030Z,12.81
2019-02-25T11:57:50.421Z,12.91
2019-02-25T12:03:00.681Z,13.00
2019-02-25T12:05:29.296Z,13.01
2019-02-25T12:07:57.906Z,12.97
2019-02-25T12:10:26.514Z,12.98
2019-02-25T12:12:55.151Z,13.02
2019-02-25T12:15:23.750Z,13.10
2019-02-25T12:17:52.692Z,13.07
2019-02-25T12:20:21.312Z,13.00
2019-02-25T12:22:49.945Z,12.95
2019-02-25T12:25:21.260Z,13.09
2019-02-25T12:27:49.880Z,13.21
2019-02-25T12:30:18.508Z,13.36
2019-02-25T12:32:47.452Z,13.43
2019-02-25T12:35:16.072Z,13.58
2019-02-25T12:37:44.701Z,13.68
2019-02-25T12:40:13.610Z,13.66
2019-02-25T12:42:42.246Z,13.66
2019-02-25T12:47:52.413Z,13.58
2019-02-25T12:50:21.020Z,13.63
2019-02-25T12:52:49.641Z,13.60
2019-02-25T12:55:18.272Z,13.70
2019-02-25T12:57:47.202Z,13.67
2019-02-25T13:00:15.816Z,13.75
2019-02-25T13:02:44.446Z,13.60
2019-02-25T13:05:13.089Z,13.46
2019-02-25T13:07:41.702Z,13.35
2019-02-25T13:10:16.329Z,13.46
2019-02-25T13:12:44.962Z,13.47
2019-02-25T13:17:52.488Z,13.51
2019-02-25T13:20:21.435Z,13.61
2019-02-25T13:22:50.438Z,13.63
2019-02-25T13:28:02.106Z,13.72
2019-02-25T13:30:28.687Z,13.64
2019-02-25T13:32:57.321Z,13.54
2019-02-25T13:35:25.949Z,13.46
2019-02-25T13:37:54.589Z,13.50
2019-02-25T13:40:23.499Z,13.58
2019-02-25T13:42:52.600Z,13.71
2019-02-25T13:45:21.225Z,13.94
2019-02-25T13:47:49.871Z,14.04
2019-02-25T13:50:18.850Z,14.10
2019-02-25T13:52:48.411Z,14.05
2019-02-25T13:55:16.124Z,13.98
2019-02-25T13:57:44.757Z,13.88
2019-02-25T14:00:25.436Z,14.03
2019-02-25T14:02:54.081Z,14.04
2019-02-25T14:05:22.697Z,14.02
2019-02-25T14:07:51.330Z,13.82
2019-02-25T14:10:20.301Z,13.75
2019-02-25T14:12:48.942Z,13.63
2019-02-25T14:15:17.568Z,13.52
2019-02-25T14:17:46.205Z,13.51
2019-02-25T14:20:14.823Z,13.53
2019-02-25T14:22:43.443Z,13.64
2019-02-25T14:25:12.683Z,13.56
2019-02-25T14:27:41.019Z,13.46
2019-02-25T14:30:12.643Z,13.22
2019-02-25T14:32:41.260Z,13.28
2019-02-25T14:35:09.887Z,13.38
2019-02-25T14:37:38.795Z,13.52
2019-02-25T14:40:08.666Z,13.34
2019-02-25T14:42:38.476Z,13.21
2019-02-25T14:45:07.233Z,13.33
2019-02-25T14:47:36.902Z,13.29
2019-02-25T14:50:02.773Z,13.41
2019-02-25T14:52:31.862Z,13.45
2019-02-25T14:55:20.295Z,13.49
2019-02-25T14:57:49.263Z,13.55
2019-02-25T15:00:23.469Z,13.47
2019-02-25T15:02:50.384Z,13.48
2019-02-25T15:05:19.427Z,13.56
2019-02-25T15:07:47.062Z,13.61
2019-02-25T15:10:15.427Z,13.55
2019-02-25T15:12:44.330Z,13.45
2019-02-25T15:15:12.968Z,13.50
2019-02-25T15:17:42.422Z,13.43
2019-02-25T15:20:16.386Z,13.18
2019-02-25T15:22:42.513Z,12.99
2019-02-25T15:27:49.622Z,13.01
2019-02-25T15:30:25.616Z,13.16
2019-02-25T15:32:56.950Z,13.10
2019-02-25T15:35:22.107Z,12.96
2019-02-25T15:37:52.877Z,12.93
2019-02-25T15:40:21.062Z,12.88
2019-02-25T15:42:48.604Z,12.75
2019-02-25T15:45:20.667Z,12.90
2019-02-25T15:47:49.439Z,12.88
2019-02-25T15:50:17.924Z,12.71
2019-02-25T15:52:46.564Z,12.72
2019-02-25T15:55:16.920Z,12.62
2019-02-25T15:57:44.103Z,12.48
2019-02-25T16:00:13.094Z,12.64
2019-02-25T16:02:41.698Z,12.64
2019-02-25T16:05:10.348Z,12.50
2019-02-25T16:07:40.193Z,12.42
2019-02-25T16:10:11.996Z,12.25
2019-02-25T16:12:39.717Z,11.94
2019-02-25T16:15:17.494Z,11.61
2019-02-25T16:17:45.841Z,11.21
2019-02-25T16:20:19.556Z,11.06
2019-02-25T16:22:46.115Z,10.67
2019-02-25T16:25:14.751Z,10.32
2019-02-25T16:27:45.035Z,10.02
2019-02-25T16:30:12.262Z,9.83
2019-02-25T16:32:42.168Z,9.64
2019-02-25T16:35:10.234Z,9.52
2019-02-25T16:37:39.212Z,9.52
2019-02-25T16:42:46.755Z,9.11
2019-02-25T16:45:21.371Z,8.99
2019-02-25T16:47:50.335Z,8.93
2019-02-25T16:50:20.930Z,8.86
2019-02-25T16:52:49.193Z,8.82
2019-02-25T16:55:20.151Z,8.77
2019-02-25T16:57:47.906Z,8.58
2019-02-25T17:00:16.520Z,8.41
2019-02-25T17:02:45.151Z,8.34
2019-02-25T17:05:14.099Z,8.29
2019-02-25T17:07:44.312Z,8.17
2019-02-25T17:10:11.354Z,8.02
2019-02-25T17:12:39.960Z,7.96
2019-02-25T17:15:10.136Z,7.96
2019-02-25T17:17:37.551Z,7.99
2019-02-25T17:20:06.192Z,7.76
2019-02-25T17:22:34.800Z,7.62
2019-02-25T17:25:07.682Z,7.54
2019-02-25T17:27:32.426Z,7.47
2019-02-25T17:30:01.353Z,7.36
2019-02-25T17:32:30.238Z,7.35
2019-02-25T17:35:00.384Z,7.29
2019-02-25T17:37:28.780Z,7.26
2019-02-25T17:39:58.453Z,7.20
2019-02-25T17:42:26.437Z,7.14
2019-02-25T17:44:55.607Z,7.15
2019-02-25T17:47:24.282Z,7.13
2019-02-25T17:49:52.256Z,7.07
2019-02-25T17:52:22.458Z,7.04
2019-02-25T17:54:50.128Z,6.86
2019-02-25T17:57:18.749Z,6.81
2019-02-25T18:02:25.921Z,6.79
2019-02-25T18:04:55.349Z,6.68
2019-02-25T18:07:23.195Z,6.62
2019-02-25T18:09:52.174Z,6.57
2019-02-25T18:12:20.796Z,6.65
2019-02-25T18:14:49.405Z,6.58
2019-02-25T18:17:19.347Z,6.51
2019-02-25T18:19:47.884Z,6.37
2019-02-25T18:22:17.246Z,6.29
2019-02-25T18:24:44.202Z,6.21
2019-02-25T18:27:12.824Z,6.24
2019-02-25T18:29:43.794Z,6.30
2019-02-25T18:32:11.813Z,6.20
2019-02-25T18:34:38.773Z,6.18
2019-02-25T18:37:09.308Z,6.13
2019-02-25T18:39:36.690Z,6.07
2019-02-25T18:42:05.326Z,6.09
2019-02-25T18:44:33.931Z,6.06
2019-02-25T18:47:02.583Z,6.06
2019-02-25T18:49:32.666Z,6.05
2019-02-25T18:51:59.869Z,6.00
2019-02-25T18:54:28.785Z,5.92
2019-02-25T18:56:58.919Z,5.81
2019-02-25T18:59:26.364Z,5.79
2019-02-25T19:01:55.011Z,5.80
2019-02-25T19:04:23.650Z,5.80
2019-02-25T19:06:52.273Z,5.73
2019-02-25T19:09:22.763Z,5.69
2019-02-25T19:11:50.847Z,5.67
2019-02-25T19:14:21.680Z,5.65
2019-02-25T19:16:47.143Z,5.59
2019-02-25T19:19:17.125Z,5.41
2019-02-25T19:21:45.664Z,5.46
2019-02-25T19:24:14.312Z,5.58
2019-02-25T19:26:43.019Z,5.72
2019-02-25T19:29:12.496Z,5.65
2019-02-25T19:31:39.855Z,5.76
2019-02-25T19:34:10.439Z,5.70
2019-02-25T19:36:38.939Z,5.61
2019-02-25T19:39:09.369Z,5.65
2019-02-25T19:41:34.457Z,5.70
2019-02-25T19:44:04.125Z,5.73
2019-02-25T19:46:32.045Z,5.61
2019-02-25T19:49:00.977Z,5.54
2019-02-25T19:51:29.949Z,5.50
2019-02-25T19:53:59.796Z,5.52
2019-02-25T19:56:27.195Z,5.46
2019-02-25T19:58:56.605Z,5.42
2019-02-25T20:01:24.446Z,5.33
2019-02-25T20:03:53.374Z,5.45
2019-02-25T20:06:23.610Z,5.31
2019-02-25T20:08:51.005Z,5.36
2019-02-25T20:11:19.239Z,5.26
2019-02-25T20:13:47.855Z,5.22
2019-02-25T20:16:20.105Z,5.32
2019-02-25T20:18:45.387Z,5.29
2019-02-25T20:21:14.375Z,5.23
2019-02-25T20:23:44.898Z,5.20
2019-02-25T20:26:13.466Z,5.08
2019-02-25T20:28:41.259Z,5.05
2019-02-25T20:31:10.109Z,5.03
2019-02-25T20:33:39.167Z,4.99
2019-02-25T20:36:06.865Z,4.99
2019-02-25T20:38:37.265Z,5.00
2019-02-25T20:41:04.423Z,4.83
2019-02-25T20:43:33.065Z,4.78
2019-02-25T20:46:04.064Z,4.78
2019-02-25T20:48:30.443Z,4.77
2019-02-25T20:51:00.311Z,4.72
2019-02-25T20:53:29.537Z,4.72
2019-02-25T20:55:57.175Z,4.77
2019-02-25T20:58:24.931Z,4.76
2019-02-25T21:00:53.575Z,4.70
2019-02-25T21:03:23.170Z,4.68
2019-02-25T21:05:51.193Z,4.67
2019-02-25T21:08:21.390Z,4.67
2019-02-25T21:10:48.804Z,4.64
2019-02-25T21:13:17.462Z,4.58
2019-02-25T21:15:46.084Z,4.59
2019-02-25T21:18:14.731Z,4.59
2019-02-25T21:20:45.056Z,4.60
2019-02-25T21:23:12.593Z,4.54
2019-02-25T21:25:40.944Z,4.55
2019-02-25T21:28:11.298Z,4.52
2019-02-25T21:30:41.153Z,4.52
2019-02-25T21:33:06.823Z,4.57
2019-02-25T21:35:37.396Z,4.46
2019-02-25T21:38:04.066Z,4.55
2019-02-25T21:40:32.701Z,4.46
2019-02-25T21:43:01.349Z,4.53
2019-02-25T21:45:32.365Z,4.39
2019-02-25T21:48:01.592Z,4.52
2019-02-25T21:50:30.716Z,4.45
2019-02-25T21:52:56.042Z,4.35
2019-02-25T21:55:26.211Z,4.41
2019-02-25T21:57:55.026Z,4.38
2019-02-25T22:00:22.555Z,4.36
2019-02-25T22:02:52.668Z,4.29
2019-02-25T22:05:21.197Z,4.28
2019-02-25T22:07:52.328Z,4.34
2019-02-25T22:10:17.386Z,4.25
2019-02-25T22:12:46.008Z,4.33
2019-02-25T22:15:22.096Z,4.27
2019-02-25T22:17:50.652Z,4.26
2019-02-25T22:20:18.943Z,4.18
2019-02-25T22:22:46.117Z,4.13
2019-02-25T22:25:20.654Z,4.18
2019-02-25T22:27:49.301Z,4.23
2019-02-25T22:30:18.235Z,4.12
2019-02-25T22:32:46.864Z,4.05
2019-02-25T22:35:15.806Z,4.03
2019-02-25T22:37:48.991Z,4.02
2019-02-25T22:42:56.248Z,4.00
2019-02-25T22:45:23.039Z,4.00
2019-02-25T22:47:52.023Z,3.96
2019-02-25T22:50:20.648Z,3.96
2019-02-25T22:52:51.275Z,3.90
2019-02-25T22:55:20.282Z,3.89
2019-02-25T22:57:50.879Z,3.83
2019-02-25T23:00:27.286Z,3.89
2019-02-25T23:02:56.806Z,3.87
2019-02-25T23:05:25.518Z,3.84
2019-02-25T23:07:54.690Z,3.86
2019-02-25T23:10:24.001Z,3.86
2019-02-25T23:12:50.665Z,3.85
2019-02-25T23:15:20.543Z,3.83
2019-02-25T23:17:48.214Z,3.73
2019-02-25T23:20:17.107Z,3.71
2019-02-25T23:22:45.752Z,3.80
2019-02-25T23:25:14.372Z,3.69
2019-02-25T23:27:43.008Z,3.73
2019-02-25T23:32:52.328Z,3.72
2019-02-25T23:35:21.279Z,3.76
2019-02-25T23:37:51.439Z,3.67
2019-02-25T23:40:17.873Z,3.60
2019-02-25T23:42:48.892Z,3.62
2019-02-25T23:45:17.864Z,3.73
2019-02-25T23:47:44.095Z,3.70
2019-02-25T23:50:13.676Z,3.78
2019-02-25T23:52:41.341Z,3.72
2019-02-25T23:55:16.519Z,3.73
2019-02-25T23:57:41.483Z,3.74
